Time;durP1;ratioP1;P1;durP2;ratioP2;P2;SDS_P1;SDS_P2;PMS_P1;PMS_P2;Temp;Humidity;BMP_temperature;BMP_pressure;BME280_temperature;BME280_humidity;BME280_pressure;Samples;Min_cycle;Max_cycle;Signal;HPM_P1;HPM_P2
2022/10/28 00:01:10;;;;;;;;;;;12.10;99.90;;;;;;4954507;28;19921;-76
2022/10/28 00:03:39;;;;;;;;;;;12.10;99.90;;;;;;4953012;28;19922;-77
2022/10/28 00:06:10;;;;;;;;;;;12.10;99.90;;;;;;4954368;28;19937;-76
2022/10/28 00:08:37;;;;;;;;;;;12.20;99.90;;;;;;4946394;28;20367;-77
2022/10/28 00:11:07;;;;;;;;;;;12.20;99.90;;;;;;4949360;28;19921;-77
2022/10/28 00:13:34;;;;;;;;;;;12.10;99.90;;;;;;4947350;28;20355;-77
2022/10/28 00:16:29;;;;;;;;;;;12.20;99.90;;;;;;4951178;28;19926;-77
2022/10/28 00:18:57;;;;;;;;;;;12.10;99.90;;;;;;4943917;28;19906;-77
2022/10/28 00:21:24;;;;;;;;;;;12.00;99.90;;;;;;4950615;28;19909;-76
2022/10/28 00:23:50;;;;;;;;;;;12.00;99.90;;;;;;4956116;28;20669;-76
2022/10/28 00:26:19;;;;;;;;;;;12.00;99.90;;;;;;4951974;28;19913;-77
2022/10/28 00:28:49;;;;;;;;;;;12.00;99.90;;;;;;4952186;28;19910;-77
2022/10/28 00:31:15;;;;;;;;;;;12.10;99.90;;;;;;4955339;28;20304;-76
2022/10/28 00:33:42;;;;;;;;;;;12.10;99.90;;;;;;4963966;28;20395;-77
2022/10/28 00:36:23;;;;;;;;;;;12.10;99.90;;;;;;4953080;28;19917;-77
2022/10/28 00:38:49;;;;;;;;;;;12.10;99.90;;;;;;4955007;28;19910;-77
2022/10/28 00:41:19;;;;;;;;;;;12.10;99.90;;;;;;4951721;28;19910;-76
2022/10/28 00:43:46;;;;;;;;;;;12.10;99.90;;;;;;4950047;28;19910;-77
2022/10/28 00:46:28;;;;;;;;;;;12.20;99.90;;;;;;4952879;28;19940;-75
2022/10/28 00:48:58;;;;;;;;;;;12.20;99.90;;;;;;4953154;28;19916;-77
2022/10/28 00:51:25;;;;;;;;;;;12.20;99.90;;;;;;4955317;28;20245;-77
2022/10/28 00:53:54;;;;;;;;;;;12.10;99.90;;;;;;4954574;28;19914;-76
2022/10/28 00:56:25;;;;;;;;;;;12.10;99.90;;;;;;4953290;28;19916;-76
2022/10/28 00:58:55;;;;;;;;;;;12.00;99.90;;;;;;4955272;28;19906;-76
2022/10/28 01:01:21;;;;;;;;;;;12.00;99.90;;;;;;4956626;28;20467;-80
2022/10/28 01:03:47;;;;;;;;;;;12.00;99.90;;;;;;4947491;28;19910;-76
2022/10/28 01:06:13;;;;;;;;;;;11.90;99.90;;;;;;4944874;28;19910;-76
2022/10/28 01:08:41;;;;;;;;;;;12.00;99.90;;;;;;4950206;28;19913;-77
2022/10/28 01:11:18;;;;;;;;;;;12.00;99.90;;;;;;4953555;28;20672;-76
2022/10/28 01:14:02;;;;;;;;;;;12.00;99.90;;;;;;4950826;28;19906;-77
2022/10/28 01:16:34;;;;;;;;;;;12.10;99.90;;;;;;4948123;28;19918;-76
2022/10/28 01:19:13;;;;;;;;;;;12.10;99.90;;;;;;4957667;28;19910;-76
2022/10/28 01:22:07;;;;;;;;;;;12.00;99.90;;;;;;4953542;28;19914;-76
2022/10/28 01:24:35;;;;;;;;;;;11.90;99.90;;;;;;4941840;28;20384;-76
2022/10/28 01:27:18;;;;;;;;;;;11.90;99.90;;;;;;4957446;28;20342;-76
2022/10/28 01:29:52;;;;;;;;;;;11.90;99.90;;;;;;4973756;28;19956;-76
2022/10/28 01:32:30;;;;;;;;;;;11.90;99.90;;;;;;4953725;28;19918;-76
2022/10/28 01:35:11;;;;;;;;;;;11.90;99.90;;;;;;4977664;28;19909;-77
2022/10/28 01:37:39;;;;;;;;;;;11.90;99.90;;;;;;4980270;28;20435;-77
2022/10/28 01:40:07;;;;;;;;;;;11.90;99.90;;;;;;4953672;28;19914;-77
2022/10/28 01:42:40;;;;;;;;;;;12.00;99.90;;;;;;4949406;28;19918;-78
2022/10/28 01:45:09;;;;;;;;;;;12.00;99.90;;;;;;4946856;28;19993;-76
2022/10/28 01:47:54;;;;;;;;;;;11.90;99.90;;;;;;4949017;28;19914;-76
2022/10/28 01:50:27;;;;;;;;;;;12.00;99.90;;;;;;4953411;28;19910;-77
2022/10/28 01:52:56;;;;;;;;;;;12.10;99.90;;;;;;4956660;28;19910;-76
2022/10/28 01:55:32;;;;;;;;;;;12.00;99.90;;;;;;4952755;28;19921;-76
2022/10/28 01:58:01;;;;;;;;;;;12.00;99.90;;;;;;4950829;28;19921;-77
2022/10/28 02:00:34;;;;;;;;;;;11.90;99.90;;;;;;4946948;28;20352;-77
2022/10/28 02:03:00;;;;;;;;;;;11.90;99.90;;;;;;4952082;28;19918;-77
2022/10/28 02:08:30;;;;;;;;;;;12.00;99.90;;;;;;4952369;28;19912;-77
2022/10/28 02:11:14;;;;;;;;;;;11.90;99.90;;;;;;4947506;28;19957;-77
2022/10/28 02:13:43;;;;;;;;;;;12.00;99.90;;;;;;4945793;28;20001;-76
2022/10/28 02:16:17;;;;;;;;;;;12.00;99.90;;;;;;4951551;28;19918;-77
2022/10/28 02:19:07;;;;;;;;;;;12.00;99.90;;;;;;4953857;28;19907;-77
2022/10/28 02:21:38;;;;;;;;;;;12.00;99.90;;;;;;4917051;28;21082;-76
2022/10/28 02:24:17;;;;;;;;;;;12.00;99.90;;;;;;4954745;28;20275;-77
2022/10/28 02:26:46;;;;;;;;;;;12.00;99.90;;;;;;4951215;28;19930;-77
2022/10/28 02:29:19;;;;;;;;;;;11.90;99.90;;;;;;4945516;28;19941;-77
2022/10/28 02:31:57;;;;;;;;;;;11.90;99.90;;;;;;4943715;28;19911;-76
2022/10/28 02:34:27;;;;;;;;;;;11.90;99.90;;;;;;4952865;28;20517;-76
2022/10/28 02:37:10;;;;;;;;;;;11.90;99.90;;;;;;4951026;28;19914;-77
2022/10/28 02:39:38;;;;;;;;;;;11.90;99.90;;;;;;4948481;28;20434;-76
2022/10/28 02:42:11;;;;;;;;;;;11.90;99.90;;;;;;4949027;28;20542;-77
2022/10/28 02:44:44;;;;;;;;;;;11.90;99.90;;;;;;4981676;28;19985;-76
2022/10/28 02:47:19;;;;;;;;;;;11.90;99.90;;;;;;4955518;28;19906;-77
2022/10/28 02:49:48;;;;;;;;;;;11.90;99.90;;;;;;4964950;28;20390;-78
2022/10/28 02:52:17;;;;;;;;;;;11.90;99.90;;;;;;4951852;28;20200;-76
2022/10/28 02:54:48;;;;;;;;;;;11.80;99.90;;;;;;4973778;28;20236;-76
2022/10/28 02:57:15;;;;;;;;;;;11.80;99.90;;;;;;4971810;28;19939;-76
2022/10/28 02:59:52;;;;;;;;;;;11.80;99.90;;;;;;4953046;28;19929;-76
2022/10/28 03:02:18;;;;;;;;;;;11.80;99.90;;;;;;4952623;28;20475;-76
2022/10/28 03:04:44;;;;;;;;;;;11.90;99.90;;;;;;4952470;28;19914;-76
2022/10/28 03:07:09;;;;;;;;;;;11.90;99.90;;;;;;4951120;28;19913;-77
2022/10/28 03:09:35;;;;;;;;;;;12.00;99.90;;;;;;4957891;28;20515;-76
2022/10/28 03:12:08;;;;;;;;;;;12.00;99.90;;;;;;4954319;28;19914;-76
2022/10/28 03:14:34;;;;;;;;;;;11.90;99.90;;;;;;4951174;28;19925;-77
2022/10/28 03:17:01;;;;;;;;;;;11.90;99.90;;;;;;4953345;28;19922;-76
2022/10/28 03:19:26;;;;;;;;;;;11.90;99.90;;;;;;4958235;28;20045;-76
2022/10/28 03:21:52;;;;;;;;;;;11.90;99.90;;;;;;4956140;28;20473;-76
2022/10/28 03:24:22;;;;;;;;;;;12.00;99.90;;;;;;4955930;28;19917;-76
2022/10/28 03:26:59;;;;;;;;;;;12.00;99.90;;;;;;4950801;28;19906;-76
2022/10/28 03:29:29;;;;;;;;;;;12.00;99.90;;;;;;4948931;28;19918;-77
2022/10/28 03:31:56;;;;;;;;;;;12.00;99.90;;;;;;4950776;28;19910;-77
2022/10/28 03:34:24;;;;;;;;;;;11.90;99.90;;;;;;4948756;28;19996;-77
2022/10/28 03:36:58;;;;;;;;;;;11.90;99.90;;;;;;4955712;28;19910;-77
2022/10/28 03:39:23;;;;;;;;;;;12.00;99.90;;;;;;4956610;28;19913;-77
2022/10/28 03:41:49;;;;;;;;;;;12.00;99.90;;;;;;4954770;28;19910;-76
2022/10/28 03:44:30;;;;;;;;;;;12.00;99.90;;;;;;4943072;28;19910;-76
2022/10/28 03:46:59;;;;;;;;;;;12.00;99.90;;;;;;4979722;28;19906;-76
2022/10/28 03:49:26;;;;;;;;;;;12.00;99.90;;;;;;4958940;28;20964;-76
2022/10/28 03:51:53;;;;;;;;;;;12.00;99.90;;;;;;4952551;28;19906;-76
2022/10/28 03:54:25;;;;;;;;;;;12.00;99.90;;;;;;4949690;28;20024;-77
2022/10/28 03:56:52;;;;;;;;;;;11.90;99.90;;;;;;4952286;28;19929;-76
2022/10/28 03:59:19;;;;;;;;;;;11.90;99.90;;;;;;4947934;28;19910;-77
2022/10/28 04:01:51;;;;;;;;;;;11.90;99.90;;;;;;4949535;28;19906;-76
2022/10/28 04:04:25;;;;;;;;;;;11.90;99.90;;;;;;4951194;28;19952;-76
2022/10/28 04:06:52;;;;;;;;;;;11.90;99.90;;;;;;4951700;28;19997;-76
2022/10/28 04:09:20;;;;;;;;;;;11.90;99.90;;;;;;4950179;28;19914;-76
2022/10/28 04:11:53;;;;;;;;;;;12.00;99.90;;;;;;4949798;28;19916;-76
2022/10/28 04:14:19;;;;;;;;;;;12.00;99.90;;;;;;4951378;28;19906;-76
2022/10/28 04:16:44;;;;;;;;;;;12.00;99.90;;;;;;4949886;28;19936;-77
2022/10/28 04:19:10;;;;;;;;;;;12.00;99.90;;;;;;4952751;28;20332;-76
2022/10/28 04:21:38;;;;;;;;;;;12.00;99.90;;;;;;4949582;28;19945;-76
2022/10/28 04:24:03;;;;;;;;;;;12.00;99.90;;;;;;4980884;28;19946;-77
2022/10/28 04:26:30;;;;;;;;;;;12.00;99.90;;;;;;4953569;28;19909;-77
2022/10/28 04:29:05;;;;;;;;;;;12.00;99.90;;;;;;4951866;28;20529;-76
2022/10/28 04:31:33;;;;;;;;;;;12.00;99.90;;;;;;4978346;28;19909;-76
2022/10/28 04:34:02;;;;;;;;;;;12.10;99.90;;;;;;4949376;28;19917;-77
2022/10/28 04:36:31;;;;;;;;;;;12.10;99.90;;;;;;4945325;28;19914;-76
2022/10/28 04:38:57;;;;;;;;;;;12.00;99.90;;;;;;4952939;28;19914;-76
2022/10/28 04:41:22;;;;;;;;;;;12.00;99.90;;;;;;4946810;28;19913;-78
2022/10/28 04:43:52;;;;;;;;;;;12.00;99.90;;;;;;4948147;28;20042;-76
2022/10/28 04:46:26;;;;;;;;;;;11.90;99.90;;;;;;4949569;28;19949;-76
2022/10/28 04:48:53;;;;;;;;;;;11.90;99.90;;;;;;4974678;28;20399;-76
2022/10/28 04:51:19;;;;;;;;;;;11.80;99.90;;;;;;4953191;28;19909;-76
2022/10/28 04:53:52;;;;;;;;;;;11.90;99.90;;;;;;4953824;28;19911;-76
2022/10/28 04:56:18;;;;;;;;;;;11.90;99.90;;;;;;4953269;28;20412;-75
2022/10/28 04:58:45;;;;;;;;;;;11.90;99.90;;;;;;4953601;28;20005;-75
2022/10/28 05:01:12;;;;;;;;;;;11.90;99.90;;;;;;4954052;28;19972;-75
2022/10/28 05:03:39;;;;;;;;;;;11.90;99.90;;;;;;4956272;28;20273;-75
2022/10/28 05:06:06;;;;;;;;;;;11.90;99.90;;;;;;4954935;28;19929;-75
2022/10/28 05:08:34;;;;;;;;;;;11.90;99.90;;;;;;4952408;28;19925;-75
2022/10/28 05:11:00;;;;;;;;;;;11.80;99.90;;;;;;4946511;28;19910;-75
2022/10/28 05:13:29;;;;;;;;;;;11.80;99.90;;;;;;4950154;28;19914;-75
2022/10/28 05:15:57;;;;;;;;;;;11.90;99.90;;;;;;4952596;28;19918;-75
2022/10/28 05:18:24;;;;;;;;;;;11.90;99.90;;;;;;4957425;28;19910;-75
2022/10/28 05:20:53;;;;;;;;;;;11.90;99.90;;;;;;4949841;28;19957;-75
2022/10/28 05:23:24;;;;;;;;;;;11.90;99.90;;;;;;4954525;28;20269;-75
2022/10/28 05:25:50;;;;;;;;;;;11.90;99.90;;;;;;4948363;28;19965;-75
2022/10/28 05:28:16;;;;;;;;;;;11.90;99.90;;;;;;4949126;28;19913;-75
2022/10/28 05:30:47;;;;;;;;;;;11.80;99.90;;;;;;4948883;28;19906;-76
2022/10/28 05:33:14;;;;;;;;;;;11.80;99.90;;;;;;4945898;28;19906;-77
2022/10/28 05:35:40;;;;;;;;;;;11.80;99.90;;;;;;4965467;28;19910;-75
2022/10/28 05:38:05;;;;;;;;;;;11.80;99.90;;;;;;4961505;28;20268;-76
2022/10/28 05:40:38;;;;;;;;;;;11.70;99.90;;;;;;4951909;28;19910;-75
2022/10/28 05:43:08;;;;;;;;;;;11.60;99.90;;;;;;4974001;28;20372;-75
2022/10/28 05:45:34;;;;;;;;;;;11.50;99.90;;;;;;4953807;28;19910;-75
2022/10/28 05:48:03;;;;;;;;;;;11.50;99.90;;;;;;4943508;28;19965;-75
2022/10/28 05:50:32;;;;;;;;;;;11.50;99.90;;;;;;4948010;28;19910;-75
2022/10/28 05:52:58;;;;;;;;;;;11.60;99.90;;;;;;4945252;28;19992;-75
2022/10/28 05:55:28;;;;;;;;;;;11.60;99.90;;;;;;4947925;28;19911;-75
2022/10/28 05:57:55;;;;;;;;;;;11.60;99.90;;;;;;4955545;28;19997;-75
2022/10/28 06:00:28;;;;;;;;;;;11.70;99.90;;;;;;4950159;28;20319;-75
2022/10/28 06:03:08;;;;;;;;;;;11.70;99.90;;;;;;4950381;28;19910;-75
2022/10/28 06:05:39;;;;;;;;;;;11.70;99.90;;;;;;4955747;28;20382;-75
2022/10/28 06:08:05;;;;;;;;;;;11.70;99.90;;;;;;4949715;28;19914;-75
2022/10/28 06:10:36;;;;;;;;;;;11.70;99.90;;;;;;4951704;28;19915;-75
2022/10/28 06:13:02;;;;;;;;;;;11.70;99.90;;;;;;4953192;28;19993;-75
2022/10/28 06:15:34;;;;;;;;;;;11.70;99.90;;;;;;4954727;28;19910;-74
2022/10/28 06:17:59;;;;;;;;;;;11.80;99.90;;;;;;4949851;28;19997;-75
2022/10/28 06:20:30;;;;;;;;;;;11.70;99.90;;;;;;4951266;28;20041;-75
2022/10/28 06:22:57;;;;;;;;;;;11.80;99.90;;;;;;4955879;28;19906;-76
2022/10/28 06:25:23;;;;;;;;;;;11.80;99.90;;;;;;4950297;28;19977;-75
2022/10/28 06:27:57;;;;;;;;;;;11.90;99.90;;;;;;4960687;28;19913;-74
2022/10/28 06:30:27;;;;;;;;;;;11.90;99.90;;;;;;4951384;28;19950;-75
2022/10/28 06:36:51;;;;;;;;;;;11.90;99.90;;;;;;5143475;27;20541;-75
2022/10/28 06:39:53;;;;;;;;;;;11.80;99.90;;;;;;5034643;27;19958;-74
2022/10/28 06:42:33;;;;;;;;;;;11.70;99.90;;;;;;5047472;28;20378;-74
2022/10/28 06:44:59;;;;;;;;;;;11.70;99.90;;;;;;5053128;28;20387;-75
2022/10/28 06:47:26;;;;;;;;;;;11.70;99.90;;;;;;5042249;28;19925;-75
2022/10/28 06:49:55;;;;;;;;;;;11.70;99.90;;;;;;5057319;28;20007;-75
2022/10/28 06:52:21;;;;;;;;;;;11.70;99.90;;;;;;5057895;28;19935;-75
2022/10/28 06:54:50;;;;;;;;;;;11.70;99.90;;;;;;5044417;28;20282;-75
2022/10/28 06:57:16;;;;;;;;;;;11.80;99.90;;;;;;5041140;28;19909;-74
2022/10/28 06:59:44;;;;;;;;;;;11.80;99.90;;;;;;5041556;28;20036;-75
2022/10/28 07:02:11;;;;;;;;;;;11.80;99.90;;;;;;5040808;28;19913;-74
2022/10/28 07:04:40;;;;;;;;;;;11.80;99.90;;;;;;5039849;28;20286;-74
2022/10/28 07:07:08;;;;;;;;;;;11.80;99.90;;;;;;5042392;28;20325;-74
2022/10/28 07:09:38;;;;;;;;;;;11.90;99.90;;;;;;5043442;28;19917;-74
2022/10/28 07:12:13;;;;;;;;;;;11.80;99.90;;;;;;5041775;28;19913;-74
2022/10/28 07:14:44;;;;;;;;;;;11.80;99.90;;;;;;5042670;28;19916;-74
2022/10/28 07:17:16;;;;;;;;;;;11.70;99.90;;;;;;5041559;28;19996;-73
2022/10/28 07:19:45;;;;;;;;;;;11.80;99.90;;;;;;5044791;28;19979;-75
2022/10/28 07:22:12;;;;;;;;;;;11.70;99.90;;;;;;5043482;28;19948;-74
2022/10/28 07:24:43;;;;;;;;;;;11.70;99.90;;;;;;5043418;28;19909;-75
2022/10/28 07:27:19;;;;;;;;;;;11.70;99.90;;;;;;5041992;28;19917;-74
2022/10/28 07:29:47;;;;;;;;;;;11.70;99.90;;;;;;5042063;28;19916;-74
2022/10/28 07:32:12;;;;;;;;;;;11.70;99.90;;;;;;5040767;28;19966;-75
2022/10/28 07:34:47;;;;;;;;;;;11.80;99.90;;;;;;5040297;28;20501;-75
2022/10/28 07:37:15;;;;;;;;;;;11.80;99.90;;;;;;5040668;28;19913;-74
2022/10/28 07:39:42;;;;;;;;;;;11.80;99.90;;;;;;5045689;28;20003;-74
2022/10/28 07:42:09;;;;;;;;;;;11.90;99.90;;;;;;5040985;28;19916;-75
2022/10/28 07:44:37;;;;;;;;;;;11.90;99.90;;;;;;5040883;28;19971;-74
2022/10/28 07:47:05;;;;;;;;;;;12.00;99.90;;;;;;5041253;28;20015;-75
2022/10/28 07:49:32;;;;;;;;;;;11.90;99.90;;;;;;5034354;28;20317;-75
2022/10/28 07:51:58;;;;;;;;;;;11.80;99.90;;;;;;5027268;28;20282;-74
2022/10/28 07:54:30;;;;;;;;;;;11.90;99.90;;;;;;5029073;28;19909;-74
2022/10/28 07:56:58;;;;;;;;;;;11.90;99.90;;;;;;5034070;28;20054;-74
2022/10/28 07:59:32;;;;;;;;;;;11.90;99.90;;;;;;5028919;28;19972;-74
2022/10/28 08:01:59;;;;;;;;;;;12.00;99.90;;;;;;5031635;28;19909;-74
2022/10/28 08:04:28;;;;;;;;;;;11.90;99.90;;;;;;5027943;28;19909;-74
2022/10/28 08:06:56;;;;;;;;;;;11.90;99.90;;;;;;5015901;28;19936;-74
2022/10/28 08:09:28;;;;;;;;;;;11.90;99.90;;;;;;5030487;28;19909;-74
2022/10/28 08:11:56;;;;;;;;;;;12.00;99.90;;;;;;5027092;28;19920;-75
2022/10/28 08:14:21;;;;;;;;;;;12.10;99.90;;;;;;5026393;28;19917;-75
2022/10/28 08:16:47;;;;;;;;;;;12.20;99.90;;;;;;5025815;28;19910;-75
2022/10/28 08:19:12;;;;;;;;;;;12.30;99.90;;;;;;5018360;28;19916;-75
2022/10/28 08:21:39;;;;;;;;;;;12.40;99.90;;;;;;5019581;28;19941;-74
2022/10/28 08:24:13;;;;;;;;;;;12.40;99.90;;;;;;5021650;28;19940;-74
2022/10/28 08:26:38;;;;;;;;;;;12.40;99.90;;;;;;5017745;28;19946;-74
2022/10/28 08:29:06;;;;;;;;;;;12.40;99.90;;;;;;5006945;28;20368;-74
2022/10/28 08:31:52;;;;;;;;;;;12.40;99.90;;;;;;5017683;28;19999;-74
2022/10/28 08:34:19;;;;;;;;;;;12.30;99.90;;;;;;5023985;28;19962;-74
2022/10/28 08:36:51;;;;;;;;;;;12.20;99.90;;;;;;5021246;28;19916;-74
2022/10/28 08:39:17;;;;;;;;;;;12.20;99.90;;;;;;5020436;28;19917;-74
2022/10/28 08:42:01;;;;;;;;;;;12.20;99.90;;;;;;5007526;28;20420;-74
2022/10/28 08:44:49;;;;;;;;;;;12.20;99.90;;;;;;5007727;28;19963;-74
2022/10/28 08:47:16;;;;;;;;;;;12.20;99.90;;;;;;5031786;28;19916;-75
2022/10/28 08:49:42;;;;;;;;;;;12.30;99.90;;;;;;5026480;28;20354;-74
2022/10/28 08:52:15;;;;;;;;;;;12.30;99.90;;;;;;5019187;28;19917;-75
2022/10/28 08:55:16;;;;;;;;;;;12.30;99.90;;;;;;5020288;28;19913;-74
2022/10/28 08:57:48;;;;;;;;;;;12.20;99.90;;;;;;4984897;28;19910;-74
2022/10/28 09:00:28;;;;;;;;;;;12.30;99.90;;;;;;5015916;28;19910;-74
2022/10/28 09:03:12;;;;;;;;;;;12.30;99.90;;;;;;5005987;28;19995;-75
2022/10/28 09:05:39;;;;;;;;;;;12.40;99.90;;;;;;5023176;28;19913;-74
2022/10/28 09:08:05;;;;;;;;;;;12.40;99.90;;;;;;5019292;28;19923;-75
2022/10/28 09:13:30;;;;;;;;;;;12.60;99.90;;;;;;5017228;28;19909;-74
2022/10/28 09:16:06;;;;;;;;;;;12.60;99.90;;;;;;5020328;28;19913;-74
2022/10/28 09:18:43;;;;;;;;;;;12.70;99.90;;;;;;5019939;28;20255;-75
2022/10/28 09:21:17;;;;;;;;;;;12.60;99.90;;;;;;5007895;28;19970;-74
2022/10/28 09:23:55;;;;;;;;;;;12.50;99.90;;;;;;5019564;28;19909;-74
2022/10/28 09:26:23;;;;;;;;;;;12.70;99.90;;;;;;5028132;28;19921;-74
2022/10/28 09:28:48;;;;;;;;;;;12.70;99.90;;;;;;5032226;28;20384;-74
2022/10/28 09:31:34;;;;;;;;;;;12.70;99.90;;;;;;5019991;28;19978;-74
2022/10/28 09:34:32;;;;;;;;;;;12.70;99.90;;;;;;5030629;28;20390;-74
2022/10/28 09:37:17;;;;;;;;;;;12.70;99.90;;;;;;5014419;28;19936;-74
2022/10/28 09:39:47;;;;;;;;;;;12.70;99.90;;;;;;5016616;28;19924;-74
2022/10/28 09:42:16;;;;;;;;;;;12.80;99.90;;;;;;5021644;28;19966;-78
2022/10/28 09:44:54;;;;;;;;;;;12.70;99.90;;;;;;5015679;28;19913;-74
2022/10/28 09:47:25;;;;;;;;;;;12.70;99.90;;;;;;5021200;28;19987;-75
2022/10/28 09:49:55;;;;;;;;;;;12.70;99.90;;;;;;5018982;28;20000;-74
2022/10/28 09:52:44;;;;;;;;;;;12.80;99.90;;;;;;5026348;28;20664;-74
2022/10/28 09:55:20;;;;;;;;;;;12.90;99.90;;;;;;5018542;28;21004;-75
2022/10/28 09:57:47;;;;;;;;;;;12.90;99.90;;;;;;5032560;28;20143;-74
2022/10/28 10:00:13;;;;;;;;;;;12.90;99.90;;;;;;5006290;28;20027;-74
2022/10/28 10:02:41;;;;;;;;;;;12.90;99.90;;;;;;5013134;28;20224;-74
2022/10/28 10:05:17;;;;;;;;;;;12.80;99.90;;;;;;5021302;28;20709;-74
2022/10/28 10:07:55;;;;;;;;;;;12.90;99.90;;;;;;5015628;28;19913;-74
2022/10/28 10:10:22;;;;;;;;;;;12.90;99.90;;;;;;5000105;28;19910;-75
2022/10/28 10:12:48;;;;;;;;;;;13.00;99.90;;;;;;5005404;28;20654;-74
2022/10/28 10:15:39;;;;;;;;;;;13.00;99.90;;;;;;4999154;28;20385;-74
2022/10/28 10:18:25;;;;;;;;;;;13.10;99.90;;;;;;4993263;28;20011;-75
2022/10/28 10:20:56;;;;;;;;;;;13.20;99.90;;;;;;4995253;28;20029;-75
2022/10/28 10:23:23;;;;;;;;;;;13.40;99.90;;;;;;5001652;28;20313;-74
2022/10/28 10:25:53;;;;;;;;;;;13.40;99.90;;;;;;4995173;28;19949;-74
2022/10/28 10:28:27;;;;;;;;;;;13.40;99.90;;;;;;5000279;28;19909;-74
2022/10/28 10:30:59;;;;;;;;;;;13.20;99.90;;;;;;5004962;28;19913;-75
2022/10/28 10:33:29;;;;;;;;;;;13.30;99.90;;;;;;4998338;28;19913;-74
2022/10/28 10:35:59;;;;;;;;;;;13.30;99.90;;;;;;4988489;28;19941;-74
2022/10/28 10:38:24;;;;;;;;;;;13.40;99.90;;;;;;5003987;28;20032;-74
2022/10/28 10:40:51;;;;;;;;;;;13.40;99.90;;;;;;5001040;28;20414;-74
2022/10/28 10:43:17;;;;;;;;;;;13.40;99.90;;;;;;5002157;28;20764;-74
2022/10/28 10:46:04;;;;;;;;;;;13.40;99.90;;;;;;5002870;28;20282;-74
2022/10/28 10:48:32;;;;;;;;;;;13.30;99.90;;;;;;4999256;28;20491;-74
2022/10/28 10:51:03;;;;;;;;;;;13.30;99.90;;;;;;5002224;28;20012;-74
2022/10/28 10:53:30;;;;;;;;;;;13.30;99.90;;;;;;4998663;28;19912;-75
2022/10/28 10:56:00;;;;;;;;;;;13.10;99.90;;;;;;5005420;28;19916;-75
2022/10/28 10:58:34;;;;;;;;;;;13.00;99.90;;;;;;4989489;28;19913;-74
2022/10/28 11:01:01;;;;;;;;;;;13.00;99.90;;;;;;4985237;28;19916;-75
2022/10/28 11:03:30;;;;;;;;;;;12.90;99.90;;;;;;4991119;28;19909;-74
2022/10/28 11:05:56;;;;;;;;;;;12.90;99.90;;;;;;4998360;28;19982;-75
2022/10/28 11:08:32;;;;;;;;;;;12.90;99.90;;;;;;4998191;28;19916;-74
2022/10/28 11:14:01;;;;;;;;;;;13.20;99.90;;;;;;4998250;28;19996;-74
2022/10/28 11:16:45;;;;;;;;;;;13.40;99.90;;;;;;4997927;28;19980;-74
2022/10/28 11:19:30;;;;;;;;;;;13.50;99.90;;;;;;4984360;28;19939;-74
2022/10/28 11:21:59;;;;;;;;;;;13.60;99.90;;;;;;4997603;28;20001;-75
2022/10/28 11:24:47;;;;;;;;;;;13.60;99.90;;;;;;4997640;28;19925;-74
2022/10/28 11:27:25;;;;;;;;;;;13.70;99.90;;;;;;5001587;28;20000;-75
2022/10/28 11:29:52;;;;;;;;;;;13.70;99.90;;;;;;5001581;28;20472;-74
2022/10/28 11:32:36;;;;;;;;;;;13.70;99.90;;;;;;5001870;28;20000;-74
2022/10/28 11:35:04;;;;;;;;;;;13.50;99.90;;;;;;5008055;28;19913;-74
2022/10/28 11:37:31;;;;;;;;;;;13.40;99.90;;;;;;5008684;28;20267;-74
2022/10/28 11:40:09;;;;;;;;;;;13.40;99.90;;;;;;5001826;28;19921;-74
2022/10/28 11:42:42;;;;;;;;;;;13.50;99.90;;;;;;4986783;28;20615;-75
2022/10/28 11:45:11;;;;;;;;;;;13.60;99.90;;;;;;4994482;28;19917;-75
2022/10/28 11:47:50;;;;;;;;;;;13.60;99.90;;;;;;5002459;28;20007;-75
2022/10/28 11:50:21;;;;;;;;;;;13.70;99.90;;;;;;5003540;28;20311;-74
2022/10/28 11:52:55;;;;;;;;;;;13.70;99.90;;;;;;5007061;28;20371;-74
2022/10/28 11:58:12;;;;;;;;;;;13.60;99.90;;;;;;5011560;28;19917;-73
2022/10/28 12:00:40;;;;;;;;;;;13.60;99.90;;;;;;4997234;28;19917;-74
2022/10/28 12:03:05;;;;;;;;;;;13.50;99.90;;;;;;5018323;28;19928;-75
2022/10/28 12:05:54;;;;;;;;;;;13.60;99.90;;;;;;5001005;28;19909;-74
2022/10/28 12:08:39;;;;;;;;;;;13.70;99.90;;;;;;5001042;28;20283;-74
2022/10/28 12:11:13;;;;;;;;;;;13.70;99.90;;;;;;5004116;28;19960;-74
2022/10/28 12:13:51;;;;;;;;;;;13.90;99.90;;;;;;5001042;28;19921;-75
2022/10/28 12:16:54;;;;;;;;;;;13.90;99.90;;;;;;5003944;28;19909;-75
2022/10/28 12:19:22;;;;;;;;;;;14.00;99.90;;;;;;4960124;28;20306;-75
2022/10/28 12:22:06;;;;;;;;;;;14.10;99.90;;;;;;4995442;28;19910;-76
2022/10/28 12:24:34;;;;;;;;;;;14.10;99.90;;;;;;4999517;28;19924;-75
2022/10/28 12:27:06;;;;;;;;;;;14.00;99.90;;;;;;5001056;28;20397;-75
2022/10/28 12:29:36;;;;;;;;;;;13.80;99.90;;;;;;5002476;28;19914;-74
2022/10/28 12:32:07;;;;;;;;;;;13.90;99.90;;;;;;5000278;28;19917;-74
2022/10/28 12:34:39;;;;;;;;;;;14.00;99.90;;;;;;5000837;28;19917;-74
2022/10/28 12:37:22;;;;;;;;;;;13.80;99.90;;;;;;5002018;28;19970;-75
2022/10/28 12:40:10;;;;;;;;;;;13.80;99.90;;;;;;4999811;28;19917;-74
2022/10/28 12:42:41;;;;;;;;;;;13.80;99.90;;;;;;5006605;28;19918;-74
2022/10/28 12:45:11;;;;;;;;;;;13.90;99.90;;;;;;5001292;28;20367;-75
2022/10/28 12:47:40;;;;;;;;;;;14.00;99.90;;;;;;5001247;28;19940;-75
2022/10/28 12:50:27;;;;;;;;;;;14.20;99.90;;;;;;5000358;28;20424;-74
2022/10/28 12:53:13;;;;;;;;;;;14.10;99.90;;;;;;4998399;28;19935;-74
2022/10/28 12:55:42;;;;;;;;;;;14.20;99.90;;;;;;5007166;28;19918;-74
2022/10/28 12:58:28;;;;;;;;;;;14.10;99.90;;;;;;5000863;28;19997;-75
2022/10/28 13:01:00;;;;;;;;;;;13.90;99.90;;;;;;4993370;28;19956;-75
2022/10/28 13:03:25;;;;;;;;;;;13.90;99.90;;;;;;5004449;28;19910;-74
2022/10/28 13:06:10;;;;;;;;;;;13.90;99.90;;;;;;5000701;28;19913;-74
2022/10/28 13:08:38;;;;;;;;;;;13.90;99.90;;;;;;5002668;28;19917;-74
2022/10/28 13:14:16;;;;;;;;;;;13.50;99.90;;;;;;5000191;28;19925;-74
2022/10/28 13:16:58;;;;;;;;;;;13.50;99.90;;;;;;5011118;28;20436;-74
2022/10/28 13:19:42;;;;;;;;;;;13.50;99.90;;;;;;5007457;28;19918;-74
2022/10/28 13:22:08;;;;;;;;;;;13.50;99.90;;;;;;5000143;28;19979;-74
2022/10/28 13:24:37;;;;;;;;;;;13.40;99.90;;;;;;5008752;28;19936;-76
2022/10/28 13:27:05;;;;;;;;;;;13.40;99.90;;;;;;5000014;28;20278;-74
2022/10/28 13:29:32;;;;;;;;;;;13.40;99.90;;;;;;5001508;28;19913;-74
2022/10/28 13:32:05;;;;;;;;;;;13.40;99.90;;;;;;5003118;28;19933;-74
2022/10/28 13:34:38;;;;;;;;;;;13.50;99.90;;;;;;4995378;28;19909;-74
2022/10/28 13:37:05;;;;;;;;;;;13.50;99.90;;;;;;5001017;28;19918;-75
2022/10/28 13:39:45;;;;;;;;;;;13.50;99.90;;;;;;4994551;28;20442;-75
2022/10/28 13:42:18;;;;;;;;;;;13.50;99.90;;;;;;4999541;28;19909;-75
2022/10/28 13:44:51;;;;;;;;;;;13.50;99.90;;;;;;5002879;28;19913;-74
2022/10/28 13:47:17;;;;;;;;;;;13.50;99.90;;;;;;4999495;28;19913;-75
2022/10/28 13:50:06;;;;;;;;;;;13.50;99.90;;;;;;5001923;28;20321;-75
2022/10/28 13:52:37;;;;;;;;;;;13.60;99.90;;;;;;5005196;28;21262;-74
2022/10/28 13:55:23;;;;;;;;;;;13.60;99.90;;;;;;4995432;28;21380;-74
2022/10/28 13:58:18;;;;;;;;;;;13.60;99.90;;;;;;5002735;28;19953;-74
2022/10/28 14:00:51;;;;;;;;;;;13.60;99.90;;;;;;4993171;28;20247;-75
2022/10/28 14:03:22;;;;;;;;;;;13.50;99.90;;;;;;5002496;28;19962;-75
2022/10/28 14:05:59;;;;;;;;;;;13.60;99.90;;;;;;4995716;28;19909;-75
2022/10/28 14:08:31;;;;;;;;;;;13.60;99.90;;;;;;5002583;28;19909;-75
2022/10/28 14:11:01;;;;;;;;;;;13.50;99.90;;;;;;4998208;28;20362;-75
2022/10/28 14:13:31;;;;;;;;;;;13.50;99.90;;;;;;5004012;28;19916;-74
2022/10/28 14:18:55;;;;;;;;;;;13.50;99.90;;;;;;4998344;28;19914;-74
2022/10/28 14:21:23;;;;;;;;;;;13.40;99.90;;;;;;4998417;28;19959;-75
2022/10/28 14:24:11;;;;;;;;;;;13.40;99.90;;;;;;4991081;28;19916;-74
2022/10/28 14:26:56;;;;;;;;;;;13.40;99.90;;;;;;4999870;28;19960;-74
2022/10/28 14:29:27;;;;;;;;;;;13.40;99.90;;;;;;5001755;28;19964;-74
2022/10/28 14:31:53;;;;;;;;;;;13.40;99.90;;;;;;4997904;28;19914;-74
2022/10/28 14:34:29;;;;;;;;;;;13.40;99.90;;;;;;4998581;28;19940;-75
2022/10/28 14:37:02;;;;;;;;;;;13.40;99.90;;;;;;5003076;28;19941;-74
2022/10/28 14:39:41;;;;;;;;;;;13.40;99.90;;;;;;4999304;28;20389;-74
2022/10/28 14:42:26;;;;;;;;;;;13.60;99.90;;;;;;4999355;28;19924;-75
2022/10/28 14:44:54;;;;;;;;;;;13.40;99.90;;;;;;4998541;28;19913;-74
2022/10/28 14:47:42;;;;;;;;;;;13.30;99.90;;;;;;4998295;28;20478;-75
2022/10/28 14:50:25;;;;;;;;;;;13.20;99.90;;;;;;4998854;28;20397;-74
2022/10/28 14:52:52;;;;;;;;;;;13.20;99.90;;;;;;4996497;28;19914;-74
2022/10/28 14:55:22;;;;;;;;;;;13.20;99.90;;;;;;4998136;28;19909;-74
2022/10/28 14:57:51;;;;;;;;;;;13.20;99.90;;;;;;4997079;28;19910;-74
2022/10/28 15:00:22;;;;;;;;;;;13.20;99.90;;;;;;5003024;28;19945;-74
2022/10/28 15:02:54;;;;;;;;;;;13.10;99.90;;;;;;4989459;28;19917;-74
2022/10/28 15:05:28;;;;;;;;;;;13.00;99.90;;;;;;5006525;28;19914;-74